sensor_id;sensor_type;location;lat;lon;timestamp;P1;durP1;ratioP1;P2;durP2;ratioP2
47715;SDS011;33476;50.984;3.538;2023-06-14T00:01:32;5.30;;;2.22;;
47715;SDS011;33476;50.984;3.538;2023-06-14T00:03:59;6.22;;;2.40;;
47715;SDS011;33476;50.984;3.538;2023-06-14T00:06:26;5.15;;;2.08;;
47715;SDS011;33476;50.984;3.538;2023-06-14T00:08:52;6.93;;;2.65;;
47715;SDS011;33476;50.984;3.538;2023-06-14T00:11:17;4.70;;;2.35;;
47715;SDS011;33476;50.984;3.538;2023-06-14T00:13:43;5.65;;;2.60;;
47715;SDS011;33476;50.984;3.538;2023-06-14T00:16:08;6.28;;;2.60;;
47715;SDS011;33476;50.984;3.538;2023-06-14T00:18:33;5.88;;;2.17;;
47715;SDS011;33476;50.984;3.538;2023-06-14T00:20:59;10.43;;;3.17;;
47715;SDS011;33476;50.984;3.538;2023-06-14T00:23:24;8.00;;;2.58;;
47715;SDS011;33476;50.984;3.538;2023-06-14T00:25:50;6.05;;;2.63;;
47715;SDS011;33476;50.984;3.538;2023-06-14T00:28:16;6.15;;;2.50;;
47715;SDS011;33476;50.984;3.538;2023-06-14T00:30:41;8.90;;;2.88;;
47715;SDS011;33476;50.984;3.538;2023-06-14T00:33:09;5.20;;;2.35;;
47715;SDS011;33476;50.984;3.538;2023-06-14T00:35:34;5.10;;;2.50;;
47715;SDS011;33476;50.984;3.538;2023-06-14T00:38:00;7.78;;;3.05;;
47715;SDS011;33476;50.984;3.538;2023-06-14T00:40:26;8.05;;;2.90;;
47715;SDS011;33476;50.984;3.538;2023-06-14T00:42:51;7.55;;;2.58;;
47715;SDS011;33476;50.984;3.538;2023-06-14T00:45:17;6.15;;;2.70;;
47715;SDS011;33476;50.984;3.538;2023-06-14T00:47:42;14.57;;;2.40;;
47715;SDS011;33476;50.984;3.538;2023-06-14T00:50:09;7.18;;;2.63;;
47715;SDS011;33476;50.984;3.538;2023-06-14T00:52:35;5.28;;;2.35;;
47715;SDS011;33476;50.984;3.538;2023-06-14T00:55:01;4.85;;;2.50;;
47715;SDS011;33476;50.984;3.538;2023-06-14T00:57:27;5.53;;;2.50;;
47715;SDS011;33476;50.984;3.538;2023-06-14T00:59:54;7.05;;;2.63;;
47715;SDS011;33476;50.984;3.538;2023-06-14T01:02:20;7.28;;;2.42;;
47715;SDS011;33476;50.984;3.538;2023-06-14T01:04:46;6.35;;;2.63;;
47715;SDS011;33476;50.984;3.538;2023-06-14T01:07:23;5.55;;;2.88;;
47715;SDS011;33476;50.984;3.538;2023-06-14T01:10:03;5.70;;;2.80;;
47715;SDS011;33476;50.984;3.538;2023-06-14T01:12:39;7.03;;;2.53;;
47715;SDS011;33476;50.984;3.538;2023-06-14T01:15:16;6.70;;;2.65;;
47715;SDS011;33476;50.984;3.538;2023-06-14T01:17:42;7.35;;;2.97;;
47715;SDS011;33476;50.984;3.538;2023-06-14T01:20:11;4.93;;;2.53;;
47715;SDS011;33476;50.984;3.538;2023-06-14T01:22:54;10.63;;;3.40;;
47715;SDS011;33476;50.984;3.538;2023-06-14T01:25:20;8.93;;;2.63;;
47715;SDS011;33476;50.984;3.538;2023-06-14T01:27:51;7.75;;;2.53;;
47715;SDS011;33476;50.984;3.538;2023-06-14T01:30:18;10.73;;;2.95;;
47715;SDS011;33476;50.984;3.538;2023-06-14T01:32:45;4.50;;;3.00;;
47715;SDS011;33476;50.984;3.538;2023-06-14T01:35:11;6.93;;;2.67;;
47715;SDS011;33476;50.984;3.538;2023-06-14T01:37:36;7.57;;;3.03;;
47715;SDS011;33476;50.984;3.538;2023-06-14T01:40:03;5.93;;;2.53;;
47715;SDS011;33476;50.984;3.538;2023-06-14T01:42:32;3.95;;;2.95;;
47715;SDS011;33476;50.984;3.538;2023-06-14T01:45:00;6.10;;;3.40;;
47715;SDS011;33476;50.984;3.538;2023-06-14T01:47:27;5.05;;;2.88;;
47715;SDS011;33476;50.984;3.538;2023-06-14T01:49:53;4.40;;;2.80;;
47715;SDS011;33476;50.984;3.538;2023-06-14T01:52:18;5.65;;;3.03;;
47715;SDS011;33476;50.984;3.538;2023-06-14T01:54:44;7.43;;;2.90;;
47715;SDS011;33476;50.984;3.538;2023-06-14T01:57:11;7.53;;;2.92;;
47715;SDS011;33476;50.984;3.538;2023-06-14T01:59:37;6.32;;;3.50;;
47715;SDS011;33476;50.984;3.538;2023-06-14T02:02:02;16.33;;;3.92;;
47715;SDS011;33476;50.984;3.538;2023-06-14T02:04:28;5.88;;;3.25;;
47715;SDS011;33476;50.984;3.538;2023-06-14T02:06:53;3.88;;;2.88;;
47715;SDS011;33476;50.984;3.538;2023-06-14T02:09:19;8.15;;;3.28;;
47715;SDS011;33476;50.984;3.538;2023-06-14T02:11:44;10.15;;;3.60;;
47715;SDS011;33476;50.984;3.538;2023-06-14T02:14:10;5.57;;;3.05;;
47715;SDS011;33476;50.984;3.538;2023-06-14T02:16:36;9.80;;;3.70;;
47715;SDS011;33476;50.984;3.538;2023-06-14T02:19:03;6.75;;;3.85;;
47715;SDS011;33476;50.984;3.538;2023-06-14T02:21:29;5.07;;;3.45;;
47715;SDS011;33476;50.984;3.538;2023-06-14T02:23:54;6.78;;;3.42;;
47715;SDS011;33476;50.984;3.538;2023-06-14T02:26:20;9.52;;;3.67;;
47715;SDS011;33476;50.984;3.538;2023-06-14T02:28:47;8.10;;;3.58;;
47715;SDS011;33476;50.984;3.538;2023-06-14T02:31:13;12.10;;;4.45;;
47715;SDS011;33476;50.984;3.538;2023-06-14T02:33:38;8.82;;;3.70;;
47715;SDS011;33476;50.984;3.538;2023-06-14T02:36:04;5.95;;;3.78;;
47715;SDS011;33476;50.984;3.538;2023-06-14T02:38:30;6.95;;;3.63;;
47715;SDS011;33476;50.984;3.538;2023-06-14T02:40:55;6.60;;;3.13;;
47715;SDS011;33476;50.984;3.538;2023-06-14T02:43:21;8.80;;;3.58;;
47715;SDS011;33476;50.984;3.538;2023-06-14T02:45:46;13.98;;;4.20;;
47715;SDS011;33476;50.984;3.538;2023-06-14T02:48:11;7.57;;;3.95;;
47715;SDS011;33476;50.984;3.538;2023-06-14T02:50:37;8.45;;;4.32;;
47715;SDS011;33476;50.984;3.538;2023-06-14T02:53:02;5.15;;;3.65;;
47715;SDS011;33476;50.984;3.538;2023-06-14T02:55:27;9.57;;;4.05;;
47715;SDS011;33476;50.984;3.538;2023-06-14T02:57:53;5.32;;;3.85;;
47715;SDS011;33476;50.984;3.538;2023-06-14T03:00:18;7.80;;;3.70;;
47715;SDS011;33476;50.984;3.538;2023-06-14T03:02:44;5.47;;;3.63;;
47715;SDS011;33476;50.984;3.538;2023-06-14T03:05:10;8.48;;;3.63;;
47715;SDS011;33476;50.984;3.538;2023-06-14T03:07:36;6.85;;;4.00;;
47715;SDS011;33476;50.984;3.538;2023-06-14T03:10:06;8.20;;;3.42;;
47715;SDS011;33476;50.984;3.538;2023-06-14T03:12:35;7.32;;;3.80;;
47715;SDS011;33476;50.984;3.538;2023-06-14T03:15:01;6.50;;;4.05;;
47715;SDS011;33476;50.984;3.538;2023-06-14T03:17:27;7.55;;;4.22;;
47715;SDS011;33476;50.984;3.538;2023-06-14T03:19:54;6.70;;;3.80;;
47715;SDS011;33476;50.984;3.538;2023-06-14T03:22:20;6.32;;;3.50;;
47715;SDS011;33476;50.984;3.538;2023-06-14T03:24:46;5.53;;;4.13;;
47715;SDS011;33476;50.984;3.538;2023-06-14T03:27:13;12.82;;;4.10;;
47715;SDS011;33476;50.984;3.538;2023-06-14T03:29:39;9.68;;;4.15;;
47715;SDS011;33476;50.984;3.538;2023-06-14T03:32:05;9.57;;;4.10;;
47715;SDS011;33476;50.984;3.538;2023-06-14T03:34:30;9.45;;;4.38;;
47715;SDS011;33476;50.984;3.538;2023-06-14T03:36:56;6.38;;;3.55;;
47715;SDS011;33476;50.984;3.538;2023-06-14T03:39:21;4.85;;;3.40;;
47715;SDS011;33476;50.984;3.538;2023-06-14T03:41:47;8.07;;;3.67;;
47715;SDS011;33476;50.984;3.538;2023-06-14T03:44:14;7.90;;;3.75;;
47715;SDS011;33476;50.984;3.538;2023-06-14T03:46:40;6.10;;;3.88;;
47715;SDS011;33476;50.984;3.538;2023-06-14T03:49:06;7.35;;;4.10;;
47715;SDS011;33476;50.984;3.538;2023-06-14T03:51:31;7.30;;;3.72;;
47715;SDS011;33476;50.984;3.538;2023-06-14T03:53:56;4.38;;;3.10;;
47715;SDS011;33476;50.984;3.538;2023-06-14T03:56:22;10.20;;;3.58;;
47715;SDS011;33476;50.984;3.538;2023-06-14T03:58:47;6.93;;;3.67;;
47715;SDS011;33476;50.984;3.538;2023-06-14T04:01:13;7.38;;;3.63;;
47715;SDS011;33476;50.984;3.538;2023-06-14T04:03:39;4.80;;;3.30;;
47715;SDS011;33476;50.984;3.538;2023-06-14T04:06:05;6.93;;;2.95;;
47715;SDS011;33476;50.984;3.538;2023-06-14T04:08:32;5.28;;;3.22;;
47715;SDS011;33476;50.984;3.538;2023-06-14T04:10:58;8.15;;;3.50;;
47715;SDS011;33476;50.984;3.538;2023-06-14T04:13:23;6.20;;;3.60;;
47715;SDS011;33476;50.984;3.538;2023-06-14T04:15:48;7.88;;;3.15;;
47715;SDS011;33476;50.984;3.538;2023-06-14T04:18:14;5.57;;;3.10;;
47715;SDS011;33476;50.984;3.538;2023-06-14T04:20:39;4.18;;;3.03;;
47715;SDS011;33476;50.984;3.538;2023-06-14T04:23:15;10.43;;;3.58;;
47715;SDS011;33476;50.984;3.538;2023-06-14T04:25:42;6.18;;;3.35;;
47715;SDS011;33476;50.984;3.538;2023-06-14T04:28:11;5.18;;;2.97;;
47715;SDS011;33476;50.984;3.538;2023-06-14T04:30:37;5.70;;;2.72;;
47715;SDS011;33476;50.984;3.538;2023-06-14T04:33:04;5.55;;;2.97;;
47715;SDS011;33476;50.984;3.538;2023-06-14T04:35:31;5.68;;;2.80;;
47715;SDS011;33476;50.984;3.538;2023-06-14T04:37:57;3.97;;;2.88;;
47715;SDS011;33476;50.984;3.538;2023-06-14T04:40:23;5.07;;;2.95;;
47715;SDS011;33476;50.984;3.538;2023-06-14T04:42:48;8.43;;;3.17;;
47715;SDS011;33476;50.984;3.538;2023-06-14T04:45:15;5.47;;;2.78;;
47715;SDS011;33476;50.984;3.538;2023-06-14T04:47:41;5.32;;;2.90;;
47715;SDS011;33476;50.984;3.538;2023-06-14T04:50:07;6.80;;;3.20;;
47715;SDS011;33476;50.984;3.538;2023-06-14T04:52:33;5.32;;;2.70;;
47715;SDS011;33476;50.984;3.538;2023-06-14T04:55:00;7.05;;;2.97;;
47715;SDS011;33476;50.984;3.538;2023-06-14T04:57:26;3.70;;;2.55;;
47715;SDS011;33476;50.984;3.538;2023-06-14T04:59:52;10.55;;;2.80;;
47715;SDS011;33476;50.984;3.538;2023-06-14T05:02:23;3.97;;;2.60;;
47715;SDS011;33476;50.984;3.538;2023-06-14T05:04:50;6.82;;;2.70;;
47715;SDS011;33476;50.984;3.538;2023-06-14T05:07:16;6.28;;;2.58;;
47715;SDS011;33476;50.984;3.538;2023-06-14T05:09:41;4.93;;;2.38;;
47715;SDS011;33476;50.984;3.538;2023-06-14T05:12:07;4.68;;;2.55;;
47715;SDS011;33476;50.984;3.538;2023-06-14T05:14:35;5.80;;;2.35;;
47715;SDS011;33476;50.984;3.538;2023-06-14T05:17:01;3.22;;;2.45;;
47715;SDS011;33476;50.984;3.538;2023-06-14T05:19:27;3.40;;;2.25;;
47715;SDS011;33476;50.984;3.538;2023-06-14T05:21:53;5.10;;;2.38;;
47715;SDS011;33476;50.984;3.538;2023-06-14T05:24:18;3.38;;;2.17;;
47715;SDS011;33476;50.984;3.538;2023-06-14T05:26:44;3.53;;;2.03;;
47715;SDS011;33476;50.984;3.538;2023-06-14T05:29:10;6.03;;;2.53;;
47715;SDS011;33476;50.984;3.538;2023-06-14T05:31:35;2.83;;;2.13;;
47715;SDS011;33476;50.984;3.538;2023-06-14T05:34:01;3.92;;;2.28;;
47715;SDS011;33476;50.984;3.538;2023-06-14T05:36:27;5.15;;;2.80;;
47715;SDS011;33476;50.984;3.538;2023-06-14T05:38:53;7.05;;;2.35;;
47715;SDS011;33476;50.984;3.538;2023-06-14T05:41:23;5.82;;;2.53;;
47715;SDS011;33476;50.984;3.538;2023-06-14T05:43:52;5.63;;;2.50;;
47715;SDS011;33476;50.984;3.538;2023-06-14T05:46:19;2.95;;;2.33;;
47715;SDS011;33476;50.984;3.538;2023-06-14T05:48:47;4.28;;;2.35;;
47715;SDS011;33476;50.984;3.538;2023-06-14T05:51:13;10.82;;;2.45;;
47715;SDS011;33476;50.984;3.538;2023-06-14T05:53:38;6.57;;;2.40;;
47715;SDS011;33476;50.984;3.538;2023-06-14T05:56:04;6.78;;;2.90;;
47715;SDS011;33476;50.984;3.538;2023-06-14T05:58:29;5.47;;;2.28;;
47715;SDS011;33476;50.984;3.538;2023-06-14T06:00:54;9.95;;;2.42;;
47715;SDS011;33476;50.984;3.538;2023-06-14T06:03:20;6.03;;;2.67;;
47715;SDS011;33476;50.984;3.538;2023-06-14T06:05:46;4.57;;;2.53;;
47715;SDS011;33476;50.984;3.538;2023-06-14T06:08:11;4.28;;;2.50;;
47715;SDS011;33476;50.984;3.538;2023-06-14T06:10:36;6.53;;;2.63;;
47715;SDS011;33476;50.984;3.538;2023-06-14T06:13:02;4.28;;;2.80;;
47715;SDS011;33476;50.984;3.538;2023-06-14T06:15:27;5.03;;;2.67;;
47715;SDS011;33476;50.984;3.538;2023-06-14T06:17:52;7.47;;;2.38;;
47715;SDS011;33476;50.984;3.538;2023-06-14T06:20:18;8.10;;;2.72;;
47715;SDS011;33476;50.984;3.538;2023-06-14T06:22:43;4.78;;;2.80;;
47715;SDS011;33476;50.984;3.538;2023-06-14T06:25:08;5.55;;;2.70;;
47715;SDS011;33476;50.984;3.538;2023-06-14T06:27:34;8.45;;;2.92;;
47715;SDS011;33476;50.984;3.538;2023-06-14T06:30:02;6.80;;;3.08;;
47715;SDS011;33476;50.984;3.538;2023-06-14T06:32:28;10.68;;;2.90;;
47715;SDS011;33476;50.984;3.538;2023-06-14T06:34:53;7.60;;;2.60;;
47715;SDS011;33476;50.984;3.538;2023-06-14T06:37:19;7.28;;;3.13;;
47715;SDS011;33476;50.984;3.538;2023-06-14T06:39:44;5.38;;;3.28;;
47715;SDS011;33476;50.984;3.538;2023-06-14T06:42:10;5.65;;;2.70;;
47715;SDS011;33476;50.984;3.538;2023-06-14T06:44:35;4.68;;;2.60;;
47715;SDS011;33476;50.984;3.538;2023-06-14T06:47:01;8.52;;;2.67;;
47715;SDS011;33476;50.984;3.538;2023-06-14T06:49:27;11.90;;;3.30;;
47715;SDS011;33476;50.984;3.538;2023-06-14T06:52:05;5.10;;;2.85;;
47715;SDS011;33476;50.984;3.538;2023-06-14T06:54:32;8.68;;;3.00;;
47715;SDS011;33476;50.984;3.538;2023-06-14T06:56:58;6.20;;;3.10;;
47715;SDS011;33476;50.984;3.538;2023-06-14T06:59:24;10.43;;;3.20;;
47715;SDS011;33476;50.984;3.538;2023-06-14T07:01:49;8.60;;;3.33;;
47715;SDS011;33476;50.984;3.538;2023-06-14T07:04:15;8.25;;;3.17;;
47715;SDS011;33476;50.984;3.538;2023-06-14T07:06:41;6.10;;;2.78;;
47715;SDS011;33476;50.984;3.538;2023-06-14T07:09:07;9.07;;;2.97;;
47715;SDS011;33476;50.984;3.538;2023-06-14T07:11:37;8.23;;;2.85;;
47715;SDS011;33476;50.984;3.538;2023-06-14T07:14:02;6.65;;;2.50;;
47715;SDS011;33476;50.984;3.538;2023-06-14T07:16:27;6.35;;;2.30;;
47715;SDS011;33476;50.984;3.538;2023-06-14T07:18:53;9.88;;;2.75;;
47715;SDS011;33476;50.984;3.538;2023-06-14T07:21:18;6.30;;;3.13;;
47715;SDS011;33476;50.984;3.538;2023-06-14T07:23:43;5.25;;;2.60;;
47715;SDS011;33476;50.984;3.538;2023-06-14T07:26:09;8.35;;;2.90;;
47715;SDS011;33476;50.984;3.538;2023-06-14T07:28:34;8.93;;;2.83;;
47715;SDS011;33476;50.984;3.538;2023-06-14T07:31:00;9.40;;;3.08;;
47715;SDS011;33476;50.984;3.538;2023-06-14T07:33:26;6.63;;;2.63;;
47715;SDS011;33476;50.984;3.538;2023-06-14T07:35:51;3.47;;;2.45;;
47715;SDS011;33476;50.984;3.538;2023-06-14T07:38:17;7.97;;;2.90;;
47715;SDS011;33476;50.984;3.538;2023-06-14T07:40:43;4.43;;;2.80;;
47715;SDS011;33476;50.984;3.538;2023-06-14T07:43:08;8.15;;;2.55;;
47715;SDS011;33476;50.984;3.538;2023-06-14T07:45:34;4.72;;;2.35;;
47715;SDS011;33476;50.984;3.538;2023-06-14T07:47:59;7.95;;;2.67;;
47715;SDS011;33476;50.984;3.538;2023-06-14T07:50:24;5.60;;;2.67;;
47715;SDS011;33476;50.984;3.538;2023-06-14T07:52:50;6.32;;;2.80;;
47715;SDS011;33476;50.984;3.538;2023-06-14T07:55:16;5.63;;;1.92;;
47715;SDS011;33476;50.984;3.538;2023-06-14T07:57:42;7.63;;;2.47;;
47715;SDS011;33476;50.984;3.538;2023-06-14T08:00:09;5.15;;;2.55;;
47715;SDS011;33476;50.984;3.538;2023-06-14T08:02:40;5.70;;;2.10;;
47715;SDS011;33476;50.984;3.538;2023-06-14T08:05:06;2.80;;;2.30;;
47715;SDS011;33476;50.984;3.538;2023-06-14T08:07:32;6.85;;;2.42;;
47715;SDS011;33476;50.984;3.538;2023-06-14T08:09:57;7.75;;;2.80;;
47715;SDS011;33476;50.984;3.538;2023-06-14T08:12:23;4.63;;;2.10;;
47715;SDS011;33476;50.984;3.538;2023-06-14T08:14:48;6.25;;;2.38;;
47715;SDS011;33476;50.984;3.538;2023-06-14T08:17:13;5.93;;;2.60;;
47715;SDS011;33476;50.984;3.538;2023-06-14T08:19:39;9.77;;;2.40;;
47715;SDS011;33476;50.984;3.538;2023-06-14T08:22:04;6.07;;;2.35;;
47715;SDS011;33476;50.984;3.538;2023-06-14T08:24:30;8.13;;;2.47;;
47715;SDS011;33476;50.984;3.538;2023-06-14T08:26:55;8.95;;;2.58;;
47715;SDS011;33476;50.984;3.538;2023-06-14T08:29:21;6.38;;;2.17;;
47715;SDS011;33476;50.984;3.538;2023-06-14T08:31:47;3.60;;;2.20;;
47715;SDS011;33476;50.984;3.538;2023-06-14T08:34:12;6.35;;;2.08;;
47715;SDS011;33476;50.984;3.538;2023-06-14T08:36:38;6.38;;;2.25;;
47715;SDS011;33476;50.984;3.538;2023-06-14T08:39:03;5.28;;;1.95;;
47715;SDS011;33476;50.984;3.538;2023-06-14T08:41:29;3.55;;;2.30;;
47715;SDS011;33476;50.984;3.538;2023-06-14T08:43:55;8.27;;;2.28;;
47715;SDS011;33476;50.984;3.538;2023-06-14T08:46:21;4.35;;;2.25;;
47715;SDS011;33476;50.984;3.538;2023-06-14T08:48:52;10.32;;;2.22;;
47715;SDS011;33476;50.984;3.538;2023-06-14T08:51:21;7.57;;;2.30;;
47715;SDS011;33476;50.984;3.538;2023-06-14T08:53:52;4.20;;;1.92;;
47715;SDS011;33476;50.984;3.538;2023-06-14T08:56:24;9.18;;;2.15;;
47715;SDS011;33476;50.984;3.538;2023-06-14T08:58:51;4.80;;;2.20;;
47715;SDS011;33476;50.984;3.538;2023-06-14T09:01:16;6.07;;;2.35;;
47715;SDS011;33476;50.984;3.538;2023-06-14T09:03:42;4.70;;;2.50;;
47715;SDS011;33476;50.984;3.538;2023-06-14T09:06:09;6.28;;;2.42;;
47715;SDS011;33476;50.984;3.538;2023-06-14T09:08:40;7.70;;;2.22;;
47715;SDS011;33476;50.984;3.538;2023-06-14T09:11:08;8.27;;;2.38;;
47715;SDS011;33476;50.984;3.538;2023-06-14T09:13:34;5.20;;;2.47;;
47715;SDS011;33476;50.984;3.538;2023-06-14T09:15:59;6.53;;;2.60;;
47715;SDS011;33476;50.984;3.538;2023-06-14T09:18:35;13.15;;;2.30;;
47715;SDS011;33476;50.984;3.538;2023-06-14T09:21:02;5.40;;;2.03;;
47715;SDS011;33476;50.984;3.538;2023-06-14T09:23:27;6.57;;;2.20;;
47715;SDS011;33476;50.984;3.538;2023-06-14T09:25:52;5.00;;;2.03;;
47715;SDS011;33476;50.984;3.538;2023-06-14T09:28:18;6.15;;;2.10;;
47715;SDS011;33476;50.984;3.538;2023-06-14T09:30:47;3.70;;;2.33;;
47715;SDS011;33476;50.984;3.538;2023-06-14T09:33:16;4.32;;;2.05;;
47715;SDS011;33476;50.984;3.538;2023-06-14T09:35:44;7.80;;;2.28;;
47715;SDS011;33476;50.984;3.538;2023-06-14T09:38:10;4.13;;;1.90;;
47715;SDS011;33476;50.984;3.538;2023-06-14T09:40:36;3.00;;;2.20;;
47715;SDS011;33476;50.984;3.538;2023-06-14T09:43:05;5.28;;;2.13;;
47715;SDS011;33476;50.984;3.538;2023-06-14T09:45:34;2.42;;;2.20;;
47715;SDS011;33476;50.984;3.538;2023-06-14T09:48:00;5.40;;;2.08;;
47715;SDS011;33476;50.984;3.538;2023-06-14T09:50:26;4.05;;;2.28;;
47715;SDS011;33476;50.984;3.538;2023-06-14T09:52:52;8.05;;;2.15;;
47715;SDS011;33476;50.984;3.538;2023-06-14T09:55:23;4.93;;;2.35;;
47715;SDS011;33476;50.984;3.538;2023-06-14T09:57:50;5.60;;;2.10;;
47715;SDS011;33476;50.984;3.538;2023-06-14T10:00:17;2.78;;;2.20;;
47715;SDS011;33476;50.984;3.538;2023-06-14T10:02:45;4.28;;;2.22;;
47715;SDS011;33476;50.984;3.538;2023-06-14T10:05:19;6.75;;;2.42;;
47715;SDS011;33476;50.984;3.538;2023-06-14T10:07:52;5.68;;;2.55;;
47715;SDS011;33476;50.984;3.538;2023-06-14T10:10:24;2.13;;;1.97;;
47715;SDS011;33476;50.984;3.538;2023-06-14T10:12:50;3.10;;;2.03;;
47715;SDS011;33476;50.984;3.538;2023-06-14T10:15:18;13.48;;;2.63;;
47715;SDS011;33476;50.984;3.538;2023-06-14T10:17:50;5.97;;;2.20;;
47715;SDS011;33476;50.984;3.538;2023-06-14T10:20:35;6.10;;;2.70;;
47715;SDS011;33476;50.984;3.538;2023-06-14T10:23:11;6.95;;;2.35;;
47715;SDS011;33476;50.984;3.538;2023-06-14T10:25:42;7.60;;;2.10;;
47715;SDS011;33476;50.984;3.538;2023-06-14T10:28:14;3.50;;;2.33;;
47715;SDS011;33476;50.984;3.538;2023-06-14T10:33:49;7.70;;;2.20;;
47715;SDS011;33476;50.984;3.538;2023-06-14T10:39:06;5.18;;;2.13;;
47715;SDS011;33476;50.984;3.538;2023-06-14T10:41:39;2.70;;;2.05;;
47715;SDS011;33476;50.984;3.538;2023-06-14T10:46:39;9.45;;;2.40;;
47715;SDS011;33476;50.984;3.538;2023-06-14T10:49:11;10.82;;;2.60;;
47715;SDS011;33476;50.984;3.538;2023-06-14T10:51:41;5.60;;;2.13;;
47715;SDS011;33476;50.984;3.538;2023-06-14T10:54:13;6.00;;;2.33;;
47715;SDS011;33476;50.984;3.538;2023-06-14T10:56:46;5.35;;;2.45;;
47715;SDS011;33476;50.984;3.538;2023-06-14T10:59:12;5.00;;;2.40;;
47715;SDS011;33476;50.984;3.538;2023-06-14T11:01:38;3.50;;;2.10;;
47715;SDS011;33476;50.984;3.538;2023-06-14T11:04:10;9.82;;;2.13;;
47715;SDS011;33476;50.984;3.538;2023-06-14T11:06:43;4.90;;;1.85;;
47715;SDS011;33476;50.984;3.538;2023-06-14T11:11:55;3.45;;;2.20;;
47715;SDS011;33476;50.984;3.538;2023-06-14T11:14:22;8.68;;;2.60;;
47715;SDS011;33476;50.984;3.538;2023-06-14T11:16:48;2.60;;;1.92;;
47715;SDS011;33476;50.984;3.538;2023-06-14T11:19:14;7.32;;;2.55;;
47715;SDS011;33476;50.984;3.538;2023-06-14T11:21:40;5.07;;;2.03;;
47715;SDS011;33476;50.984;3.538;2023-06-14T11:24:09;2.33;;;1.77;;
47715;SDS011;33476;50.984;3.538;2023-06-14T11:26:37;2.90;;;2.00;;
47715;SDS011;33476;50.984;3.538;2023-06-14T11:29:02;4.55;;;2.03;;
47715;SDS011;33476;50.984;3.538;2023-06-14T11:31:28;3.47;;;2.10;;
47715;SDS011;33476;50.984;3.538;2023-06-14T11:33:54;6.10;;;2.28;;
47715;SDS011;33476;50.984;3.538;2023-06-14T11:36:22;8.10;;;1.98;;
47715;SDS011;33476;50.984;3.538;2023-06-14T11:38:48;7.70;;;1.73;;
47715;SDS011;33476;50.984;3.538;2023-06-14T11:41:14;9.95;;;1.95;;
47715;SDS011;33476;50.984;3.538;2023-06-14T11:43:39;4.68;;;2.30;;
47715;SDS011;33476;50.984;3.538;2023-06-14T11:46:11;7.80;;;2.03;;
47715;SDS011;33476;50.984;3.538;2023-06-14T11:48:40;3.45;;;1.95;;
47715;SDS011;33476;50.984;3.538;2023-06-14T11:51:07;4.30;;;2.20;;
47715;SDS011;33476;50.984;3.538;2023-06-14T11:53:32;4.70;;;2.20;;
47715;SDS011;33476;50.984;3.538;2023-06-14T11:55:58;3.60;;;2.35;;
47715;SDS011;33476;50.984;3.538;2023-06-14T11:58:23;6.30;;;2.20;;
47715;SDS011;33476;50.984;3.538;2023-06-14T12:00:50;5.78;;;2.40;;
47715;SDS011;33476;50.984;3.538;2023-06-14T12:03:15;5.28;;;2.40;;
47715;SDS011;33476;50.984;3.538;2023-06-14T12:05:41;5.28;;;2.17;;
47715;SDS011;33476;50.984;3.538;2023-06-14T12:08:06;7.50;;;2.28;;
47715;SDS011;33476;50.984;3.538;2023-06-14T12:10:39;6.03;;;2.30;;
47715;SDS011;33476;50.984;3.538;2023-06-14T12:13:08;4.80;;;2.10;;
47715;SDS011;33476;50.984;3.538;2023-06-14T12:15:34;4.93;;;2.17;;
47715;SDS011;33476;50.984;3.538;2023-06-14T12:18:00;6.22;;;2.60;;
47715;SDS011;33476;50.984;3.538;2023-06-14T12:20:29;3.80;;;1.90;;
47715;SDS011;33476;50.984;3.538;2023-06-14T12:22:56;10.73;;;2.75;;
47715;SDS011;33476;50.984;3.538;2023-06-14T12:25:26;4.40;;;2.53;;
47715;SDS011;33476;50.984;3.538;2023-06-14T12:27:56;3.30;;;1.67;;
47715;SDS011;33476;50.984;3.538;2023-06-14T12:30:22;5.65;;;2.50;;
47715;SDS011;33476;50.984;3.538;2023-06-14T12:32:48;6.85;;;2.55;;
47715;SDS011;33476;50.984;3.538;2023-06-14T12:35:13;8.45;;;2.40;;
47715;SDS011;33476;50.984;3.538;2023-06-14T12:37:40;2.88;;;2.30;;
47715;SDS011;33476;50.984;3.538;2023-06-14T12:40:05;4.80;;;1.95;;
47715;SDS011;33476;50.984;3.538;2023-06-14T12:42:31;5.00;;;2.20;;
47715;SDS011;33476;50.984;3.538;2023-06-14T12:44:58;5.82;;;2.22;;
47715;SDS011;33476;50.984;3.538;2023-06-14T12:47:24;7.15;;;2.17;;
47715;SDS011;33476;50.984;3.538;2023-06-14T12:49:49;4.82;;;2.22;;
47715;SDS011;33476;50.984;3.538;2023-06-14T12:52:15;6.57;;;2.15;;
47715;SDS011;33476;50.984;3.538;2023-06-14T12:54:40;6.03;;;2.30;;
47715;SDS011;33476;50.984;3.538;2023-06-14T12:57:06;6.13;;;1.92;;
47715;SDS011;33476;50.984;3.538;2023-06-14T12:59:32;6.10;;;1.92;;
47715;SDS011;33476;50.984;3.538;2023-06-14T13:01:59;2.50;;;2.30;;
47715;SDS011;33476;50.984;3.538;2023-06-14T13:04:34;7.28;;;2.05;;
47715;SDS011;33476;50.984;3.538;2023-06-14T13:07:00;4.78;;;2.30;;
47715;SDS011;33476;50.984;3.538;2023-06-14T13:09:25;4.40;;;2.50;;
47715;SDS011;33476;50.984;3.538;2023-06-14T13:11:51;12.30;;;2.33;;
47715;SDS011;33476;50.984;3.538;2023-06-14T13:14:17;6.97;;;2.38;;
47715;SDS011;33476;50.984;3.538;2023-06-14T13:16:42;5.10;;;2.30;;
47715;SDS011;33476;50.984;3.538;2023-06-14T13:19:07;4.10;;;1.98;;
47715;SDS011;33476;50.984;3.538;2023-06-14T13:21:33;3.47;;;2.10;;
47715;SDS011;33476;50.984;3.538;2023-06-14T13:23:58;6.13;;;2.17;;
47715;SDS011;33476;50.984;3.538;2023-06-14T13:26:23;5.88;;;2.05;;
47715;SDS011;33476;50.984;3.538;2023-06-14T13:28:49;7.03;;;2.50;;
47715;SDS011;33476;50.984;3.538;2023-06-14T13:31:16;3.42;;;2.17;;
47715;SDS011;33476;50.984;3.538;2023-06-14T13:33:41;8.93;;;2.20;;
47715;SDS011;33476;50.984;3.538;2023-06-14T13:36:06;6.57;;;2.40;;
47715;SDS011;33476;50.984;3.538;2023-06-14T13:38:32;5.68;;;2.67;;
47715;SDS011;33476;50.984;3.538;2023-06-14T13:40:57;5.95;;;2.40;;
47715;SDS011;33476;50.984;3.538;2023-06-14T13:43:22;7.82;;;2.45;;
47715;SDS011;33476;50.984;3.538;2023-06-14T13:45:48;6.45;;;2.33;;
47715;SDS011;33476;50.984;3.538;2023-06-14T13:48:13;4.43;;;2.60;;
47715;SDS011;33476;50.984;3.538;2023-06-14T13:50:39;5.07;;;2.05;;
47715;SDS011;33476;50.984;3.538;2023-06-14T13:53:04;6.90;;;2.17;;
47715;SDS011;33476;50.984;3.538;2023-06-14T13:55:29;9.20;;;2.40;;
47715;SDS011;33476;50.984;3.538;2023-06-14T13:57:55;7.53;;;2.17;;
47715;SDS011;33476;50.984;3.538;2023-06-14T14:00:21;8.05;;;2.47;;
47715;SDS011;33476;50.984;3.538;2023-06-14T14:02:47;4.35;;;1.80;;
47715;SDS011;33476;50.984;3.538;2023-06-14T14:05:15;4.80;;;2.00;;
47715;SDS011;33476;50.984;3.538;2023-06-14T14:07:41;3.78;;;2.38;;
47715;SDS011;33476;50.984;3.538;2023-06-14T14:10:07;7.68;;;2.08;;
47715;SDS011;33476;50.984;3.538;2023-06-14T14:12:33;5.43;;;2.33;;
47715;SDS011;33476;50.984;3.538;2023-06-14T14:14:58;4.65;;;2.60;;
47715;SDS011;33476;50.984;3.538;2023-06-14T14:17:24;12.50;;;1.77;;
47715;SDS011;33476;50.984;3.538;2023-06-14T14:19:50;7.70;;;2.28;;
47715;SDS011;33476;50.984;3.538;2023-06-14T14:22:15;3.60;;;2.00;;
47715;SDS011;33476;50.984;3.538;2023-06-14T14:24:41;7.32;;;1.80;;
47715;SDS011;33476;50.984;3.538;2023-06-14T14:27:06;7.13;;;1.92;;
47715;SDS011;33476;50.984;3.538;2023-06-14T14:29:32;3.45;;;1.95;;
47715;SDS011;33476;50.984;3.538;2023-06-14T14:31:58;5.40;;;1.98;;
47715;SDS011;33476;50.984;3.538;2023-06-14T14:34:26;3.03;;;1.70;;
47715;SDS011;33476;50.984;3.538;2023-06-14T14:36:52;4.43;;;1.83;;
47715;SDS011;33476;50.984;3.538;2023-06-14T14:39:17;7.32;;;1.83;;
47715;SDS011;33476;50.984;3.538;2023-06-14T14:41:42;3.60;;;1.50;;
47715;SDS011;33476;50.984;3.538;2023-06-14T14:44:08;3.42;;;1.75;;
47715;SDS011;33476;50.984;3.538;2023-06-14T14:46:33;4.63;;;2.03;;
47715;SDS011;33476;50.984;3.538;2023-06-14T14:48:59;6.90;;;1.80;;
47715;SDS011;33476;50.984;3.538;2023-06-14T14:51:25;4.20;;;1.77;;
47715;SDS011;33476;50.984;3.538;2023-06-14T14:53:50;4.13;;;1.58;;
47715;SDS011;33476;50.984;3.538;2023-06-14T14:56:16;4.43;;;1.88;;